Time;durP1;ratioP1;P1;durP2;ratioP2;P2;SDS_P1;SDS_P2;PMS_P1;PMS_P2;Temp;Humidity;BMP_temperature;BMP_pressure;BME280_temperature;BME280_humidity;BME280_pressure;Samples;Min_cycle;Max_cycle;Signal;HPM_P1;HPM_P2
2022/09/05 00:02:30;;;;;;;3.08;2.85;;;;;;;24.90;65.98;101468.88;5073883;28;20044;-81
2022/09/05 00:05:42;;;;;;;3.38;3.08;;;;;;;24.85;66.23;101464.38;5073662;28;20045;-81
2022/09/05 00:08:47;;;;;;;4.20;2.65;;;;;;;24.72;66.83;101476.75;5073393;28;20051;-81
2022/09/05 00:11:31;;;;;;;4.28;2.60;;;;;;;24.70;67.10;101457.53;5071496;28;20515;-81
2022/09/05 00:14:28;;;;;;;4.30;3.05;;;;;;;24.75;66.62;101464.84;5071807;28;20044;-81
2022/09/05 00:17:22;;;;;;;4.50;2.67;;;;;;;24.85;66.17;101461.56;5073498;28;20041;-81
2022/09/05 00:20:12;;;;;;;3.38;2.85;;;;;;;24.88;66.30;101463.63;5073319;28;20051;-81
2022/09/05 00:23:17;;;;;;;3.00;2.78;;;;;;;24.78;66.77;101467.72;5064266;28;20376;-81
2022/09/05 00:26:23;;;;;;;4.20;2.72;;;;;;;24.93;66.59;101470.97;5073643;28;20048;-81
2022/09/05 00:29:13;;;;;;;2.90;2.63;;;;;;;24.94;66.49;101470.59;5073397;28;20041;-81
2022/09/05 00:32:23;;;;;;;5.13;2.78;;;;;;;24.92;66.62;101469.34;5073589;28;20053;-81
2022/09/05 00:34:57;;;;;;;3.10;2.90;;;;;;;24.98;66.48;101461.50;5073370;28;20052;-80
2022/09/05 00:37:30;;;;;;;3.08;2.88;;;;;;;24.86;66.63;101463.19;5060252;28;20041;-81
2022/09/05 00:40:17;;;;;;;2.70;2.50;;;;;;;24.82;66.82;101465.88;5059854;28;20478;-81
2022/09/05 00:42:53;;;;;;;3.53;2.58;;;;;;;24.86;67.20;101462.34;5073126;28;20051;-81
2022/09/05 00:45:36;;;;;;;3.35;2.65;;;;;;;24.91;66.82;101467.72;5073316;28;20395;-81
2022/09/05 00:48:21;;;;;;;3.63;2.55;;;;;;;24.86;67.08;101468.78;5072912;28;20499;-80
2022/09/05 00:51:04;;;;;;;4.10;2.75;;;;;;;24.78;67.64;101464.13;5073254;28;20410;-80
2022/09/05 00:53:47;;;;;;;2.85;2.65;;;;;;;24.73;67.81;101468.00;5066546;28;20044;-81
2022/09/05 00:56:44;;;;;;;3.57;3.00;;;;;;;24.73;67.42;101467.19;5067360;28;20486;-80
2022/09/05 00:59:49;;;;;;;2.78;2.55;;;;;;;24.73;67.78;101464.38;5057956;28;20049;-81
2022/09/05 01:03:08;;;;;;;4.50;2.90;;;;;;;24.72;67.85;101466.38;5076237;28;20486;-81
2022/09/05 01:05:59;;;;;;;3.15;2.85;;;;;;;24.58;69.00;101465.97;5072762;28;20048;-81
2022/09/05 01:08:54;;;;;;;3.10;2.80;;;;;;;24.50;68.45;101454.56;5072465;28;20053;-81
2022/09/05 01:11:52;;;;;;;3.78;2.90;;;;;;;24.43;69.27;101455.16;5072590;28;20055;-80
2022/09/05 01:14:26;;;;;;;4.30;3.10;;;;;;;24.43;69.25;101457.97;5071610;28;20395;-81
2022/09/05 01:17:17;;;;;;;4.32;2.92;;;;;;;24.38;69.20;101452.63;5072428;28;20049;-80
2022/09/05 01:20:07;;;;;;;4.65;3.22;;;;;;;24.36;69.43;101454.97;5071556;28;20041;-81
2022/09/05 01:23:14;;;;;;;3.25;2.95;;;;;;;24.35;69.53;101449.72;5052501;28;20053;-81
2022/09/05 01:26:00;;;;;;;3.30;3.00;;;;;;;24.44;69.12;101444.81;5052128;28;20048;-80
2022/09/05 01:28:56;;;;;;;3.10;2.75;;;;;;;24.43;69.24;101438.38;5057273;28;20502;-80
2022/09/05 01:32:14;;;;;;;3.65;2.90;;;;;;;24.38;69.42;101435.00;5052358;28;20040;-80
2022/09/05 01:35:03;;;;;;;4.60;2.78;;;;;;;24.19;70.11;101442.06;5052450;28;20414;-80
2022/09/05 01:37:57;;;;;;;5.75;3.03;;;;;;;24.19;70.44;101444.84;5052000;28;20045;-80
2022/09/05 01:40:48;;;;;;;;;;;;;;;24.20;70.17;101438.13;5072693;28;20399;-81
2022/09/05 01:44:25;;;;;;;3.83;3.00;;;;;;;24.16;70.78;101424.00;5071875;28;19924;-81
2022/09/05 01:47:18;;;;;;;3.15;2.83;;;;;;;24.01;71.24;101421.91;5029670;28;20065;-81
2022/09/05 01:50:19;;;;;;;3.40;3.10;;;;;;;24.03;71.11;101428.78;5029894;28;20472;-80
2022/09/05 01:53:26;;;;;;;6.18;3.22;;;;;;;24.14;70.58;101429.13;5069415;28;20067;-81
2022/09/05 01:56:07;;;;;;;6.13;2.95;;;;;;;24.17;70.60;101436.00;5063462;28;20056;-81
2022/09/05 01:59:01;;;;;;;3.58;3.03;;;;;;;24.13;70.70;101444.28;5071853;28;20052;-81
2022/09/05 02:01:52;;;;;;;3.35;3.00;;;;;;;24.07;71.52;101444.84;5071766;28;20525;-81
2022/09/05 02:04:42;;;;;;;4.28;3.30;;;;;;;24.01;71.30;101444.28;5071703;28;20056;-80
2022/09/05 02:07:33;;;;;;;3.35;2.60;;;;;;;23.94;71.51;101450.47;5071832;28;20049;-81
2022/09/05 02:10:22;;;;;;;4.28;2.80;;;;;;;23.88;71.71;101440.69;5042003;28;20396;-81
2022/09/05 02:13:00;;;;;;;4.30;2.90;;;;;;;23.86;72.18;101445.81;5071858;28;20044;-81
2022/09/05 02:15:44;;;;;;;3.92;3.53;;;;;;;23.83;72.06;101443.72;5071628;28;20490;-81
2022/09/05 02:18:36;;;;;;;4.53;3.58;;;;;;;23.84;72.00;101450.91;5070564;28;20056;-80
2022/09/05 02:21:12;;;;;;;4.05;3.55;;;;;;;23.62;72.43;101445.47;5071660;28;20154;-81
2022/09/05 02:23:45;;;;;;;4.10;3.70;;;;;;;23.57;72.74;101447.69;5071492;28;20071;-81
2022/09/05 02:26:28;;;;;;;4.57;4.22;;;;;;;23.47;73.15;101448.97;5071618;28;20056;-81
2022/09/05 02:29:10;;;;;;;4.32;3.92;;;;;;;23.45;72.97;101452.09;5071323;28;20059;-81
2022/09/05 02:32:01;;;;;;;4.88;3.60;;;;;;;23.41;73.39;101441.97;5073426;28;20055;-81
2022/09/05 02:34:39;;;;;;;4.35;3.95;;;;;;;23.31;73.95;101441.25;5075382;28;20475;-81
2022/09/05 02:37:24;;;;;;;4.85;4.22;;;;;;;23.43;72.93;101439.63;5064547;28;20052;-81
2022/09/05 02:40:22;;;;;;;4.22;3.85;;;;;;;23.38;73.18;101431.47;5063786;28;20410;-81
2022/09/05 02:43:34;;;;;;;4.43;4.03;;;;;;;23.46;73.04;101428.59;5075161;28;20048;-81
2022/09/05 02:46:47;;;;;;;6.75;4.68;;;;;;;23.40;72.90;101431.97;5075221;28;20048;-81
2022/09/05 02:49:30;;;;;;;4.68;4.18;;;;;;;23.37;73.41;101432.66;5075113;28;20044;-81
2022/09/05 02:52:18;;;;;;;4.88;4.30;;;;;;;23.37;73.11;101424.28;5065326;28;20041;-81
2022/09/05 02:55:21;;;;;;;6.20;4.43;;;;;;;23.37;72.76;101433.47;5075075;28;20060;-81
2022/09/05 02:58:19;;;;;;;5.97;4.43;;;;;;;23.33;72.87;101426.94;5075014;28;20041;-81
2022/09/05 03:01:05;;;;;;;4.82;4.20;;;;;;;23.21;73.34;101424.91;5075279;28;20051;-81
2022/09/05 03:03:47;;;;;;;5.53;4.72;;;;;;;23.13;73.71;101429.47;5074964;28;20481;-81
2022/09/05 03:06:33;;;;;;;5.22;4.60;;;;;;;23.06;74.29;101429.19;5075019;28;20055;-81
2022/09/05 03:09:31;;;;;;;6.80;5.20;;;;;;;23.05;73.99;101442.34;5062358;28;20043;-81
2022/09/05 03:12:22;;;;;;;6.50;5.65;;;;;;;23.05;72.82;101436.75;5074867;28;20037;-81
2022/09/05 03:15:33;;;;;;;5.72;5.22;;;;;;;23.01;72.58;101444.19;5074624;28;20053;-81
2022/09/05 03:18:22;;;;;;;5.75;5.10;;;;;;;22.94;72.21;101438.34;5074843;28;20041;-81
2022/09/05 03:21:17;;;;;;;7.57;5.70;;;;;;;22.94;72.32;101435.56;5074906;28;20029;-81
2022/09/05 03:24:24;;;;;;;7.13;6.18;;;;;;;22.88;72.47;101448.91;5074455;28;20064;-81
2022/09/05 03:27:15;;;;;;;7.18;4.93;;;;;;;22.77;72.89;101442.94;5074648;28;20040;-81
2022/09/05 03:30:01;;;;;;;8.55;5.90;;;;;;;22.75;72.86;101442.47;5074702;28;20517;-81
2022/09/05 03:32:35;;;;;;;8.55;5.88;;;;;;;22.78;73.13;101440.97;5072697;28;20044;-81
2022/09/05 03:35:30;;;;;;;7.60;5.90;;;;;;;22.80;72.73;101438.66;5065306;28;20055;-81
2022/09/05 03:38:40;;;;;;;8.73;6.07;;;;;;;22.74;73.42;101443.66;5073692;28;20048;-81
2022/09/05 03:41:38;;;;;;;7.60;5.93;;;;;;;22.64;73.69;101444.06;5073416;28;20040;-81
2022/09/05 03:44:28;;;;;;;6.55;5.70;;;;;;;22.65;73.69;101442.91;5073811;28;20052;-81
2022/09/05 03:47:30;;;;;;;6.68;5.85;;;;;;;22.64;73.47;101435.69;5054324;28;20360;-81
2022/09/05 03:50:35;;;;;;;6.82;5.95;;;;;;;22.74;73.03;101438.06;5062018;28;20037;-81
2022/09/05 03:53:27;;;;;;;;;;;;;;;22.76;72.60;101438.53;5063676;28;20476;-81
2022/09/05 03:56:33;;;;;;;8.35;5.95;;;;;;;22.75;72.95;101434.13;5054156;28;19925;-81
2022/09/05 03:59:31;;;;;;;7.35;5.68;;;;;;;22.72;73.18;101434.00;5054375;28;20075;-81
2022/09/05 04:02:08;;;;;;;8.30;5.85;;;;;;;22.65;73.68;101426.16;5054761;28;20053;-81
2022/09/05 04:05:29;;;;;;;8.35;6.63;;;;;;;22.67;73.23;101429.41;5053713;28;20065;-81
2022/09/05 04:08:44;;;;;;;9.85;6.88;;;;;;;22.73;73.15;101432.81;5062465;28;20049;-81
2022/09/05 04:11:22;;;;;;;7.38;5.90;;;;;;;22.58;73.64;101421.13;5053928;28;20546;-81
2022/09/05 04:13:59;;;;;;;6.53;5.63;;;;;;;22.59;73.43;101420.00;5053580;28;20049;-81
2022/09/05 04:16:41;;;;;;;8.20;6.20;;;;;;;22.48;73.67;101433.50;5053868;28;20053;-81
2022/09/05 04:19:36;;;;;;;7.32;6.32;;;;;;;22.52;74.36;101431.69;5048513;28;20041;-81
2022/09/05 04:22:47;;;;;;;7.68;6.00;;;;;;;22.62;73.59;101426.88;5065395;28;20479;-81
2022/09/05 04:25:43;;;;;;;6.72;5.63;;;;;;;22.59;73.47;101433.13;5054916;28;20545;-81
2022/09/05 04:28:30;;;;;;;6.72;5.60;;;;;;;22.62;73.32;101438.03;5060679;28;20075;-81
2022/09/05 04:31:08;;;;;;;8.30;5.70;;;;;;;22.54;73.86;101436.94;5053704;28;20037;-81
2022/09/05 04:33:59;;;;;;;7.72;5.72;;;;;;;22.58;73.84;101425.91;5053627;28;20144;-81
2022/09/05 04:36:31;;;;;;;7.05;5.88;;;;;;;22.59;73.94;101438.69;5053495;28;20041;-81
2022/09/05 04:39:17;;;;;;;9.32;6.22;;;;;;;22.76;72.92;101438.53;5064780;28;20045;-80
2022/09/05 04:41:53;;;;;;;8.85;6.07;;;;;;;22.92;72.56;101444.28;5060437;28;20049;-78
2022/09/05 04:44:29;;;;;;;7.35;5.63;;;;;;;23.34;71.21;101440.56;5054522;28;20055;-81
2022/09/05 04:47:11;;;;;;;7.40;5.82;;;;;;;23.53;70.09;101447.56;5043259;28;20134;-81
2022/09/05 04:50:07;;;;;;;5.68;5.07;;;;;;;23.87;68.54;101445.47;5057731;28;20060;-80
2022/09/05 04:53:10;;;;;;;6.28;5.45;;;;;;;23.93;67.94;101448.84;5055420;28;20049;-81
2022/09/05 04:55:44;;;;;;;5.30;4.72;;;;;;;24.13;67.43;101452.69;5051334;28;20052;-80
2022/09/05 04:58:45;;;;;;;5.88;4.85;;;;;;;24.16;66.97;101448.38;5069920;28;20032;-80
2022/09/05 05:01:41;;;;;;;6.43;5.30;;;;;;;24.32;66.43;101454.03;5071954;28;20049;-80
2022/09/05 05:04:29;;;;;;;6.65;5.30;;;;;;;24.18;66.97;101445.22;5072563;28;20407;-81
2022/09/05 05:07:25;;;;;;;9.98;5.78;;;;;;;24.23;66.82;101453.34;5072686;28;20060;-81
2022/09/05 05:09:59;;;;;;;6.18;5.32;;;;;;;24.07;67.28;101462.47;5072400;28;20056;-81
2022/09/05 05:13:21;;;;;;;8.35;6.00;;;;;;;23.83;67.55;101460.47;5072689;28;20041;-81
2022/09/05 05:16:18;;;;;;;6.07;5.47;;;;;;;24.22;66.34;101474.09;5071745;28;20033;-80
2022/09/05 05:19:26;;;;;;;8.10;5.40;;;;;;;24.35;65.76;101475.72;5071833;28;20044;-80
2022/09/05 05:21:58;;;;;;;7.53;5.75;;;;;;;24.05;66.98;101478.72;5072376;28;20517;-80
2022/09/05 05:24:32;;;;;;;8.18;5.88;;;;;;;24.16;66.67;101491.09;5072372;28;20060;-80
2022/09/05 05:27:19;;;;;;;10.38;6.53;;;;;;;24.29;66.09;101477.09;5072407;28;20402;-80
2022/09/05 05:30:22;;;;;;;9.23;5.88;;;;;;;24.26;66.20;101494.59;5072554;28;20051;-80
2022/09/05 05:32:52;;;;;;;6.72;5.65;;;;;;;24.38;66.21;101480.59;5072520;28;20040;-80
2022/09/05 05:35:27;;;;;;;7.40;5.30;;;;;;;24.52;65.50;101484.97;5071575;28;20056;-79
2022/09/05 05:38:28;;;;;;;11.68;6.10;;;;;;;24.49;65.50;101477.31;5070873;28;20052;-80
2022/09/05 05:41:28;;;;;;;13.77;6.28;;;;;;;24.61;64.86;101493.22;5066670;28;20048;-80
2022/09/05 05:43:57;;;;;;;9.30;5.85;;;;;;;24.75;64.58;101492.81;5065698;28;20048;-79
2022/09/05 05:46:31;;;;;;;8.75;5.60;;;;;;;24.66;64.82;101492.97;5068725;28;20049;-79
2022/09/05 05:49:08;;;;;;;;;;;;;;;24.81;64.04;101502.63;5069782;28;20036;-79
2022/09/05 05:51:43;;;;;;;8.55;5.60;;;;;;;24.80;64.49;101500.97;5069452;28;19935;-79
2022/09/05 05:54:48;;;;;;;8.35;6.00;;;;;;;24.65;64.87;101517.38;5072046;28;20063;-79
2022/09/05 05:57:25;;;;;;;9.07;6.47;;;;;;;24.62;64.72;101506.03;5060631;28;20055;-78
2022/09/05 06:00:01;;;;;;;8.05;6.43;;;;;;;24.77;64.04;101507.25;5070604;28;20063;-79
2022/09/05 06:02:53;;;;;;;8.70;6.55;;;;;;;24.81;64.07;101514.66;5071539;28;20044;-79
2022/09/05 06:06:19;;;;;;;6.60;5.93;;;;;;;25.03;63.46;101520.84;5071593;28;20045;-79
2022/09/05 06:09:05;;;;;;;6.93;5.45;;;;;;;25.20;63.14;101530.09;5071586;28;20029;-79
2022/09/05 06:12:10;;;;;;;5.30;4.82;;;;;;;25.12;63.24;101529.09;5071584;28;20032;-79
2022/09/05 06:15:24;;;;;;;6.57;5.22;;;;;;;25.40;62.37;101533.84;5069772;28;20052;-78
2022/09/05 06:18:13;;;;;;;5.75;4.85;;;;;;;25.55;61.91;101521.06;5040822;28;20053;-79
2022/09/05 06:21:06;;;;;;;6.53;5.20;;;;;;;25.37;62.48;101531.78;5068012;28;20044;-78
2022/09/05 06:24:15;;;;;;;6.35;5.00;;;;;;;25.57;61.93;101540.31;5069091;28;20044;-78
2022/09/05 06:26:48;;;;;;;7.88;5.25;;;;;;;25.75;61.21;101535.16;5077024;28;20108;-78
2022/09/05 06:29:16;;;;;;;4.97;4.50;;;;;;;25.80;60.73;101539.69;5065972;28;20048;-78
2022/09/05 06:32:00;;;;;;;5.10;4.60;;;;;;;25.89;60.57;101543.09;5068573;28;20056;-78
2022/09/05 06:35:37;;;;;;;5.15;4.65;;;;;;;25.88;60.15;101542.31;5076672;28;20041;-78
2022/09/05 06:38:23;;;;;;;7.50;5.43;;;;;;;26.02;60.09;101529.81;5005463;28;20050;-78
2022/09/05 06:41:12;;;;;;;7.93;5.22;;;;;;;26.15;59.54;101525.69;4996990;28;20050;-78
2022/09/05 06:44:01;;;;;;;5.80;5.20;;;;;;;26.28;59.31;101522.81;5054745;28;20040;-78
2022/09/05 06:46:34;;;;;;;5.25;4.72;;;;;;;26.25;59.77;101526.34;5065426;28;20040;-78
2022/09/05 06:49:34;;;;;;;4.97;4.47;;;;;;;26.26;59.31;101528.81;5060156;28;20037;-78
2022/09/05 06:52:46;;;;;;;7.85;4.47;;;;;;;26.39;59.20;101532.28;5058743;28;20053;-78
2022/09/05 06:55:38;;;;;;;8.70;4.68;;;;;;;26.54;58.43;101532.63;5069680;28;20056;-78
2022/09/05 06:58:12;;;;;;;6.72;4.75;;;;;;;26.66;58.35;101535.28;5082373;28;20300;-78
2022/09/05 07:00:53;;;;;;;5.07;4.10;;;;;;;26.80;57.53;101531.97;5067727;28;20052;-79
2022/09/05 07:03:29;;;;;;;4.78;4.38;;;;;;;26.91;57.46;101525.72;5068577;28;20402;-79
2022/09/05 07:06:10;;;;;;;5.00;4.50;;;;;;;26.95;57.31;101533.09;5061618;28;20040;-78
2022/09/05 07:08:52;;;;;;;5.50;4.70;;;;;;;26.95;57.23;101529.47;5066699;28;20045;-79
2022/09/05 07:11:22;;;;;;;4.80;4.22;;;;;;;27.02;57.26;101528.81;5060798;28;20491;-78
2022/09/05 07:14:07;;;;;;;5.88;4.40;;;;;;;27.19;56.82;101530.31;5058336;28;20056;-80
2022/09/05 07:16:54;;;;;;;6.03;4.07;;;;;;;27.21;56.06;101530.75;5049241;28;20045;-79
2022/09/05 07:19:35;;;;;;;4.85;3.75;;;;;;;27.46;55.41;101539.66;5057769;28;20562;-79
2022/09/05 07:22:27;;;;;;;4.15;3.75;;;;;;;27.39;55.98;101535.91;5053556;28;20091;-79
2022/09/05 07:25:20;;;;;;;4.80;4.00;;;;;;;27.24;55.51;101532.84;5054498;28;20045;-79
2022/09/05 07:28:09;;;;;;;4.40;4.00;;;;;;;27.40;55.97;101531.91;5053947;28;20387;-79
2022/09/05 07:31:02;;;;;;;3.92;3.63;;;;;;;27.45;55.54;101540.03;5054648;28;20506;-79
2022/09/05 07:33:30;;;;;;;;;;;;;;;27.49;55.31;101540.91;5054819;28;20045;-79
2022/09/05 07:36:10;;;;;;;4.30;3.88;;;;;;;27.59;55.03;101540.31;5054470;28;19920;-78
2022/09/05 07:38:39;;;;;;;4.65;3.50;;;;;;;27.65;54.80;101540.81;5067038;28;20047;-79
2022/09/05 07:41:31;;;;;;;5.13;3.75;;;;;;;27.78;55.08;101541.44;5070266;28;20051;-79
2022/09/05 07:44:07;;;;;;;6.68;3.80;;;;;;;27.79;54.94;101537.44;5071359;28;20047;-78
2022/09/05 07:46:39;;;;;;;4.13;3.55;;;;;;;27.89;54.42;101545.25;5069684;28;20511;-79
2022/09/05 07:49:13;;;;;;;5.97;3.53;;;;;;;28.04;53.60;101548.28;5066386;28;20104;-78
2022/09/05 07:51:53;;;;;;;4.93;3.67;;;;;;;28.05;53.53;101547.06;5066896;28;20450;-78
2022/09/05 07:54:45;;;;;;;7.60;4.40;;;;;;;27.78;54.16;101541.44;5069485;28;20045;-78
2022/09/05 07:57:41;;;;;;;7.72;3.97;;;;;;;27.92;53.93;101546.50;5071446;28;20032;-79
2022/09/05 08:00:25;;;;;;;10.05;3.97;;;;;;;28.15;53.70;101548.44;5070833;28;20399;-79
2022/09/05 08:03:11;;;;;;;6.00;3.50;;;;;;;28.31;52.79;101545.50;5067621;28;20048;-79
2022/09/05 08:05:46;;;;;;;4.57;4.03;;;;;;;28.11;54.58;101541.94;5070532;28;20060;-79
2022/09/05 08:08:19;;;;;;;4.70;4.30;;;;;;;28.17;54.34;101563.75;5071159;28;20048;-79
2022/09/05 08:10:54;;;;;;;7.07;4.30;;;;;;;28.04;54.32;101548.28;5064432;28;20053;-79
2022/09/05 08:13:52;;;;;;;4.95;4.07;;;;;;;28.12;54.72;101555.66;5071744;28;20036;-79
2022/09/05 08:16:45;;;;;;;6.75;4.82;;;;;;;28.02;55.15;101551.44;5069318;28;20043;-80
2022/09/05 08:19:53;;;;;;;4.88;3.80;;;;;;;28.46;53.68;101551.31;5072010;28;20052;-77
2022/09/05 08:23:14;;;;;;;4.97;4.30;;;;;;;28.53;54.12;101554.22;5055795;28;20076;-78
2022/09/05 08:26:12;;;;;;;8.05;3.60;;;;;;;28.62;53.32;101554.75;5053727;28;20064;-78
2022/09/05 08:29:01;;;;;;;5.22;3.58;;;;;;;28.61;52.84;101553.13;5052526;28;20057;-79
2022/09/05 08:31:44;;;;;;;4.78;3.42;;;;;;;28.44;53.57;101551.69;5055714;28;20498;-79
2022/09/05 08:34:20;;;;;;;8.07;4.75;;;;;;;28.41;54.23;101539.22;5052145;28;20049;-79
2022/09/05 08:37:11;;;;;;;6.30;4.57;;;;;;;28.41;54.58;101549.66;5055389;28;20057;-79
2022/09/05 08:39:47;;;;;;;5.90;4.78;;;;;;;28.40;54.49;101545.22;5067756;28;20044;-79
2022/09/05 08:42:44;;;;;;;5.68;4.53;;;;;;;28.48;53.91;101532.84;5065804;28;20037;-79
2022/09/05 08:45:49;;;;;;;6.72;4.18;;;;;;;28.59;53.43;101532.19;5066389;28;20051;-76
2022/09/05 08:48:56;;;;;;;5.28;4.70;;;;;;;28.58;54.07;101537.00;5070326;28;20056;-77
2022/09/05 08:51:45;;;;;;;7.82;5.10;;;;;;;28.61;53.63;101533.44;5069019;28;20041;-78
2022/09/05 08:54:30;;;;;;;4.90;4.15;;;;;;;28.86;52.57;101532.09;5074674;28;20044;-78
2022/09/05 08:57:20;;;;;;;4.68;3.97;;;;;;;28.72;53.05;101529.94;5081889;28;20044;-78
2022/09/05 09:00:06;;;;;;;5.28;4.70;;;;;;;28.59;53.72;101530.16;5065227;28;20048;-78
2022/09/05 09:03:10;;;;;;;6.30;4.85;;;;;;;28.56;53.92;101543.03;5069270;28;20049;-78
2022/09/05 09:05:53;;;;;;;5.88;4.22;;;;;;;28.56;54.35;101533.75;5072495;28;20037;-78
2022/09/05 09:09:06;;;;;;;6.50;4.22;;;;;;;28.55;54.68;101534.97;5069653;28;20438;-78
2022/09/05 09:11:43;;;;;;;5.93;4.15;;;;;;;28.63;53.14;101525.41;5071944;28;20510;-78
2022/09/05 09:14:20;;;;;;;7.72;4.55;;;;;;;28.75;53.72;101524.34;5073687;28;20037;-78
2022/09/05 09:17:22;;;;;;;6.00;4.38;;;;;;;28.95;52.89;101527.84;5067104;28;20049;-79
2022/09/05 09:20:13;;;;;;;6.07;4.10;;;;;;;29.21;52.32;101525.28;5086794;28;20040;-78
2022/09/05 09:23:09;;;;;;;4.93;3.70;;;;;;;29.39;51.29;101522.66;5066936;28;20040;-78
2022/09/05 09:26:20;;;;;;;5.68;3.97;;;;;;;29.47;50.76;101521.50;5069351;28;20423;-78
2022/09/05 09:29:15;;;;;;;5.28;4.38;;;;;;;29.36;51.41;101517.78;5059913;28;20063;-78
2022/09/05 09:31:58;;;;;;;5.32;4.13;;;;;;;29.33;51.59;101513.72;5070253;28;20037;-78
2022/09/05 09:34:30;;;;;;;6.85;4.68;;;;;;;29.36;50.89;101518.59;5068080;28;20040;-78
2022/09/05 09:37:20;;;;;;;5.30;4.80;;;;;;;29.38;51.34;101518.22;5070029;28;20510;-78
2022/09/05 09:40:45;;;;;;;4.68;3.50;;;;;;;29.41;50.89;101514.59;5073955;28;20290;-78
2022/09/05 09:43:58;;;;;;;5.38;4.88;;;;;;;29.37;50.77;101503.31;5034704;28;20399;-78
2022/09/05 09:46:46;;;;;;;4.40;3.97;;;;;;;29.52;50.45;101497.00;5066613;28;20071;-78
2022/09/05 09:49:26;;;;;;;6.78;3.92;;;;;;;29.45;50.30;101498.53;5080733;28;20490;-78
2022/09/05 09:52:20;;;;;;;5.65;4.50;;;;;;;29.36;51.04;101495.22;5068565;28;20040;-78
2022/09/05 09:55:38;;;;;;;5.75;4.28;;;;;;;29.28;51.12;101499.19;5067505;28;20426;-78
2022/09/05 09:58:44;;;;;;;6.90;4.18;;;;;;;29.57;50.60;101488.19;5047484;28;20055;-79
2022/09/05 10:01:37;;;;;;;4.80;4.05;;;;;;;29.57;49.88;101488.19;5063972;28;20044;-79
2022/09/05 10:04:09;;;;;;;4.32;3.90;;;;;;;29.68;49.56;101497.56;5056038;28;20052;-79
2022/09/05 10:07:10;;;;;;;6.07;4.10;;;;;;;29.87;49.54;101507.75;5065633;28;20037;-79
2022/09/05 10:10:27;;;;;;;4.20;3.75;;;;;;;29.83;48.60;101487.19;5067571;28;20041;-79
2022/09/05 10:13:52;;;;;;;3.72;3.42;;;;;;;30.02;48.33;101488.13;5068926;28;20510;-78
2022/09/05 10:16:26;;;;;;;5.43;3.80;;;;;;;30.05;47.65;101492.97;5060265;28;20050;-78
2022/09/05 10:18:54;;;;;;;3.53;2.90;;;;;;;30.20;47.94;101482.59;5067567;28;20052;-78
2022/09/05 10:21:49;;;;;;;6.72;3.45;;;;;;;30.21;47.18;101480.59;5070206;28;20052;-78
2022/09/05 10:25:07;;;;;;;4.45;3.28;;;;;;;30.24;47.39;101483.44;5061419;28;20033;-78
2022/09/05 10:28:06;;;;;;;4.50;3.67;;;;;;;30.44;46.92;101471.81;5058782;28;20396;-78
2022/09/05 10:30:44;;;;;;;4.47;3.63;;;;;;;30.53;46.54;101472.25;5065716;28;20370;-78
2022/09/05 10:34:01;;;;;;;3.85;2.97;;;;;;;30.49;46.03;101460.13;5070440;28;20036;-78
2022/09/05 10:37:01;;;;;;;3.08;2.85;;;;;;;30.57;45.43;101458.97;5068556;28;20398;-78
2022/09/05 10:39:34;;;;;;;2.88;2.67;;;;;;;30.78;45.66;101451.78;5078070;28;20060;-78
2022/09/05 10:42:14;;;;;;;3.23;2.70;;;;;;;30.75;45.10;101446.13;5066878;28;20390;-77
2022/09/05 10:44:56;;;;;;;2.92;2.72;;;;;;;30.86;44.89;101443.31;5067545;28;20044;-78
2022/09/05 10:47:46;;;;;;;3.00;2.70;;;;;;;30.99;44.52;101455.88;5067866;28;20067;-79
2022/09/05 10:50:28;;;;;;;3.00;2.80;;;;;;;31.05;44.11;101436.50;5048794;28;20526;-79
2022/09/05 10:53:23;;;;;;;2.90;2.70;;;;;;;31.04;44.61;101441.31;5047172;28;20044;-79
2022/09/05 10:56:25;;;;;;;3.22;3.00;;;;;;;30.66;45.18;101436.00;5055380;28;20071;-79
2022/09/05 10:59:03;;;;;;;3.22;2.92;;;;;;;30.30;45.22;101433.84;5055838;28;20048;-79
2022/09/05 11:02:02;;;;;;;3.60;3.30;;;;;;;30.52;44.58;101442.41;5037274;28;20048;-79
2022/09/05 11:05:05;;;;;;;3.58;3.28;;;;;;;30.51;45.43;101442.81;5044410;28;20039;-79
2022/09/05 11:07:47;;;;;;;5.18;3.40;;;;;;;30.35;45.43;101437.50;5055245;28;20044;-78
2022/09/05 11:10:30;;;;;;;4.60;2.90;;;;;;;30.30;45.74;101433.06;5086126;28;20064;-79
2022/09/05 11:13:25;;;;;;;3.20;2.90;;;;;;;30.38;44.93;101414.09;5070160;28;20051;-79
2022/09/05 11:16:08;;;;;;;4.35;3.13;;;;;;;30.44;45.28;101410.50;5072122;28;20044;-79
2022/09/05 11:18:59;;;;;;;3.83;3.53;;;;;;;30.81;44.72;101404.97;5044664;28;20057;-79
2022/09/05 11:21:54;;;;;;;5.28;3.13;;;;;;;31.20;43.52;101417.53;5067297;28;20056;-79
2022/09/05 11:24:50;;;;;;;3.78;3.20;;;;;;;31.38;42.44;101407.03;5058535;28;20044;-79
2022/09/05 11:27:21;;;;;;;;;;;;;;;31.42;42.83;101404.22;5057538;28;20369;-78
2022/09/05 11:29:58;;;;;;;2.95;2.75;;;;;;;31.51;42.79;101398.13;5053021;28;19924;-79
2022/09/05 11:32:53;;;;;;;5.93;3.40;;;;;;;31.77;42.56;101396.06;5049374;28;20052;-79
2022/09/05 11:36:04;;;;;;;3.78;3.30;;;;;;;31.81;41.99;101388.38;5052166;28;20468;-79
2022/09/05 11:39:14;;;;;;;4.60;2.83;;;;;;;31.85;42.25;101385.56;5083965;28;20028;-79
2022/09/05 11:42:02;;;;;;;4.25;3.22;;;;;;;31.75;41.50;101379.50;5071844;28;20049;-79
2022/09/05 11:44:55;;;;;;;4.07;3.67;;;;;;;31.93;41.88;101375.03;5033789;28;20040;-80
2022/09/05 11:47:44;;;;;;;6.00;3.03;;;;;;;31.98;41.21;101383.09;5056832;28;20052;-78
2022/09/05 11:50:54;;;;;;;4.32;3.63;;;;;;;31.83;41.56;101371.81;5061071;28;20052;-79
2022/09/05 11:53:46;;;;;;;5.68;3.28;;;;;;;31.90;40.92;101368.97;5037246;28;20406;-78
2022/09/05 11:56:35;;;;;;;4.43;3.08;;;;;;;32.17;40.94;101374.09;5051647;28;20098;-78
2022/09/05 11:59:47;;;;;;;4.63;2.63;;;;;;;32.21;41.39;101370.47;5047857;28;20056;-78
2022/09/05 12:03:10;;;;;;;5.28;3.30;;;;;;;32.32;41.32;101368.38;5063309;28;20063;-78
2022/09/05 12:06:16;;;;;;;3.88;3.17;;;;;;;32.58;41.08;101366.22;5041093;28;20049;-78
2022/09/05 12:09:02;;;;;;;3.90;3.50;;;;;;;32.63;40.36;101364.97;5021239;28;20495;-78
2022/09/05 12:11:53;;;;;;;4.18;3.00;;;;;;;32.45;40.83;101351.75;5035283;28;20049;-79
2022/09/05 12:14:48;;;;;;;3.70;3.22;;;;;;;32.55;41.27;101352.91;5019279;28;20056;-78
2022/09/05 12:17:45;;;;;;;3.30;3.10;;;;;;;32.17;40.51;101339.34;5055434;28;20056;-78
2022/09/05 12:20:23;;;;;;;3.47;3.17;;;;;;;32.22;40.51;101343.75;5046344;28;20048;-78
2022/09/05 12:23:03;;;;;;;3.42;3.00;;;;;;;32.40;40.10;101344.47;5034521;28;20670;-78
2022/09/05 12:25:47;;;;;;;3.75;3.08;;;;;;;32.26;40.42;101341.72;5033865;28;20059;-78
2022/09/05 12:28:49;;;;;;;3.63;3.33;;;;;;;32.51;39.96;101343.63;5041550;28;20057;-78
2022/09/05 12:31:45;;;;;;;3.90;3.42;;;;;;;32.53;40.36;101329.84;5040566;28;20075;-78
2022/09/05 12:34:48;;;;;;;4.22;3.88;;;;;;;32.64;40.21;101316.41;5054309;28;20045;-78
2022/09/05 12:37:55;;;;;;;3.40;3.05;;;;;;;33.05;39.40;101331.06;5046018;28;20079;-78
2022/09/05 12:41:00;;;;;;;3.78;3.40;;;;;;;32.89;39.15;101334.44;5050673;28;20041;-78
2022/09/05 12:44:15;;;;;;;4.57;3.30;;;;;;;33.11;38.94;101337.91;5057161;28;20391;-79
2022/09/05 12:47:09;;;;;;;3.40;3.10;;;;;;;33.22;38.48;101327.25;5056801;28;20079;-79
2022/09/05 12:50:02;;;;;;;4.30;3.45;;;;;;;32.90;38.83;101328.34;5053576;28;20045;-79
2022/09/05 12:52:45;;;;;;;3.10;2.90;;;;;;;33.20;39.03;101320.41;5031552;28;20399;-79
2022/09/05 12:55:18;;;;;;;3.45;3.15;;;;;;;33.14;38.30;101328.56;5065128;28;20052;-79
2022/09/05 12:57:53;;;;;;;3.33;3.08;;;;;;;33.39;38.54;101321.81;5052983;28;20041;-78
2022/09/05 13:00:46;;;;;;;3.13;2.90;;;;;;;33.41;38.48;101316.53;5068652;28;20055;-79
2022/09/05 13:03:51;;;;;;;3.58;3.22;;;;;;;33.48;38.02;101313.59;5035596;28;20049;-78
2022/09/05 13:06:45;;;;;;;4.15;3.63;;;;;;;33.24;37.90;101302.13;5053196;28;20044;-79
2022/09/05 13:09:59;;;;;;;4.45;3.80;;;;;;;33.31;37.86;101306.09;5050590;28;20045;-79
2022/09/05 13:12:54;;;;;;;3.97;3.30;;;;;;;33.38;38.12;101294.69;4973246;28;20054;-78
2022/09/05 13:15:51;;;;;;;3.63;3.33;;;;;;;33.50;38.16;101304.69;5050024;28;20491;-79
2022/09/05 13:18:23;;;;;;;3.13;2.83;;;;;;;33.83;37.48;101281.59;5041036;28;20407;-79
2022/09/05 13:20:55;;;;;;;3.60;3.20;;;;;;;33.92;36.90;101290.41;5039540;28;20063;-79